createdAt,value
2023-02-12T00:04:25.291Z,31.98
2023-02-12T00:09:28.149Z,32.60
2023-02-12T00:14:30.679Z,30.35
2023-02-12T00:19:34.874Z,30.98
2023-02-12T00:24:37.345Z,29.80
2023-02-12T00:29:39.980Z,30.20
2023-02-12T00:34:44.095Z,30.27
2023-02-12T00:39:46.785Z,32.15
2023-02-12T00:44:49.325Z,32.72
2023-02-12T00:49:53.406Z,30.55
2023-02-12T00:54:56.229Z,33.90
2023-02-12T00:59:58.686Z,31.05
2023-02-12T01:05:02.762Z,26.52
2023-02-12T01:10:06.149Z,28.67
2023-02-12T01:15:10.388Z,32.27
2023-02-12T01:20:15.210Z,34.88
2023-02-12T01:25:20.506Z,29.10
2023-02-12T01:30:24.346Z,32.53
2023-02-12T01:35:28.433Z,32.03
2023-02-12T01:40:31.014Z,32.47
2023-02-12T01:45:45.380Z,32.67
2023-02-12T01:50:50.444Z,26.50
2023-02-12T01:55:54.919Z,30.33
2023-02-12T02:00:57.984Z,31.70
2023-02-12T02:06:02.892Z,34.88
2023-02-12T02:11:25.811Z,34.83
2023-02-12T02:16:29.023Z,35.08
2023-02-12T02:21:49.193Z,32.40
2023-02-12T02:27:01.004Z,35.72
2023-02-12T02:32:08.365Z,30.15
2023-02-12T02:37:15.054Z,32.63
2023-02-12T02:42:19.793Z,32.97
2023-02-12T02:47:25.981Z,10.05
2023-02-12T02:52:31.620Z,31.90
2023-02-12T02:57:37.613Z,25.38
2023-02-12T03:02:42.648Z,27.17
2023-02-12T03:07:47.628Z,29.35
2023-02-12T03:12:52.347Z,28.80
2023-02-12T03:17:57.231Z,31.27
2023-02-12T03:23:04.398Z,33.45
2023-02-12T03:28:08.761Z,33.47
2023-02-12T03:38:18.432Z,36.20
2023-02-12T03:43:24.622Z,37.92
2023-02-12T03:48:29.649Z,28.40
2023-02-12T03:53:33.629Z,27.23
2023-02-12T03:58:38.053Z,34.45
2023-02-12T04:08:44.628Z,34.60
2023-02-12T04:13:53.540Z,30.70
2023-02-12T04:18:56.817Z,33.80
2023-02-12T04:24:07.092Z,33.22
2023-02-12T04:29:14.814Z,34.72
2023-02-12T04:34:19.796Z,32.75
2023-02-12T04:39:26.154Z,42.05
2023-02-12T04:44:29.856Z,32.80
2023-02-12T04:49:32.803Z,35.67
2023-02-12T04:54:36.935Z,34.05
2023-02-12T04:59:40.010Z,34.27
2023-02-12T05:04:42.554Z,34.28
2023-02-12T05:09:47.086Z,33.15
2023-02-12T05:14:49.609Z,34.88
2023-02-12T05:19:52.509Z,24.73
2023-02-12T05:24:56.290Z,34.67
2023-02-12T05:29:58.787Z,34.38
2023-02-12T05:35:01.359Z,38.47
2023-02-12T05:40:06.215Z,35.47
2023-02-12T05:45:09.134Z,39.20
2023-02-12T05:50:11.995Z,42.83
2023-02-12T05:55:16.036Z,35.67
2023-02-12T06:00:18.863Z,35.58
2023-02-12T06:05:21.442Z,42.58
2023-02-12T06:10:25.649Z,48.45
2023-02-12T06:15:28.180Z,40.30
2023-02-12T06:20:30.880Z,45.00
2023-02-12T06:25:34.804Z,45.53
2023-02-12T06:30:37.588Z,44.70
2023-02-12T06:35:40.113Z,45.70
2023-02-12T06:40:44.115Z,42.80
2023-02-12T06:45:46.604Z,50.67
2023-02-12T06:50:49.015Z,48.08
2023-02-12T06:55:52.878Z,42.65
2023-02-12T07:00:55.543Z,46.95
2023-02-12T07:05:58.239Z,47.08
2023-02-12T07:11:02.167Z,51.15
2023-02-12T07:16:05.705Z,56.25
2023-02-12T07:21:09.479Z,45.63
2023-02-12T07:26:13.917Z,46.15
2023-02-12T07:31:17.722Z,42.22
2023-02-12T07:36:20.705Z,45.88
2023-02-12T07:41:25.494Z,45.58
2023-02-12T07:46:30.545Z,44.35
2023-02-12T07:51:33.821Z,42.05
2023-02-12T07:56:38.990Z,49.13
2023-02-12T08:01:42.054Z,48.50
2023-02-12T08:06:45.302Z,47.03
2023-02-12T08:11:49.123Z,40.60
2023-02-12T08:16:52.261Z,38.03
2023-02-12T08:21:55.604Z,41.63
2023-02-12T08:26:59.601Z,40.73
2023-02-12T08:32:03.313Z,31.25
2023-02-12T08:37:06.444Z,42.67
2023-02-12T08:42:10.681Z,38.13
2023-02-12T08:52:15.595Z,38.13
2023-02-12T08:57:19.655Z,36.45
2023-02-12T09:02:22.255Z,39.08
2023-02-12T09:07:24.907Z,33.97
2023-02-12T09:12:28.774Z,42.08
2023-02-12T09:17:31.349Z,38.35
2023-02-12T09:22:33.983Z,31.00
2023-02-12T09:27:37.885Z,31.52
2023-02-12T09:32:40.376Z,32.20
2023-02-12T09:37:44.799Z,35.15
2023-02-12T09:43:06.145Z,24.63
2023-02-12T09:48:17.856Z,28.13
2023-02-12T09:53:22.395Z,24.77
2023-02-12T09:58:30.493Z,19.73
2023-02-12T10:03:34.348Z,15.23
2023-02-12T10:08:42.645Z,8.75
2023-02-12T10:13:51.933Z,8.93
2023-02-12T10:19:02.010Z,11.20
2023-02-12T10:24:16.575Z,8.95
2023-02-12T10:29:21.236Z,8.80
2023-02-12T10:34:26.749Z,7.28
2023-02-12T10:39:31.524Z,7.05
2023-02-12T10:44:34.063Z,5.00
2023-02-12T10:49:37.892Z,8.35
2023-02-12T10:54:42.167Z,13.05
2023-02-12T10:59:45.446Z,8.02
2023-02-12T11:04:49.598Z,4.80
2023-02-12T11:09:52.887Z,5.65
2023-02-12T11:14:56.891Z,2.57
2023-02-12T11:20:09.688Z,1.20
2023-02-12T11:25:16.695Z,2.17
2023-02-12T11:30:20.301Z,2.60
2023-02-12T11:35:25.903Z,2.50
2023-02-12T11:40:29.512Z,1.73
2023-02-12T11:45:33.499Z,3.72
2023-02-12T11:50:38.389Z,2.15
2023-02-12T11:55:41.890Z,3.20
2023-02-12T12:00:47.200Z,1.45
2023-02-12T12:05:52.353Z,2.22
2023-02-12T12:10:57.670Z,2.80
2023-02-12T12:16:23.013Z,2.97
2023-02-12T12:21:30.384Z,3.63
2023-02-12T12:26:35.000Z,4.20
2023-02-12T12:31:39.907Z,3.17
2023-02-12T12:37:06.821Z,4.57
2023-02-12T12:42:20.599Z,4.30
2023-02-12T12:47:26.029Z,5.32
2023-02-12T12:52:38.890Z,6.45
2023-02-12T12:57:47.539Z,5.93
2023-02-12T13:03:06.294Z,11.18
2023-02-12T13:08:14.288Z,6.25
2023-02-12T13:13:21.791Z,8.35
2023-02-12T13:18:32.018Z,7.22
2023-02-12T13:23:39.977Z,5.57
2023-02-12T13:28:44.813Z,6.40
2023-02-12T13:33:50.165Z,5.75
2023-02-12T13:38:57.392Z,5.57
2023-02-12T13:44:04.821Z,12.68
2023-02-12T13:49:14.018Z,8.80
2023-02-12T13:54:31.068Z,8.25
2023-02-12T13:59:43.953Z,8.93
2023-02-12T14:04:47.483Z,8.70
2023-02-12T14:14:55.813Z,11.45
2023-02-12T14:20:06.278Z,8.80
2023-02-12T14:25:23.736Z,8.13
2023-02-12T14:30:32.146Z,12.43
2023-02-12T14:35:35.893Z,11.13
2023-02-12T14:40:42.547Z,8.32
2023-02-12T14:45:46.541Z,7.88
2023-02-12T14:50:52.173Z,11.52
2023-02-12T14:55:55.433Z,10.13
2023-02-12T15:01:01.605Z,11.18
2023-02-12T15:06:08.208Z,10.90
2023-02-12T15:11:15.467Z,10.13
2023-02-12T15:16:23.822Z,9.02
2023-02-12T15:21:27.855Z,9.73
2023-02-12T15:26:31.780Z,12.50
2023-02-12T15:31:36.169Z,17.38
2023-02-12T15:36:38.828Z,13.73
2023-02-12T15:41:42.040Z,13.27
2023-02-12T15:46:55.077Z,16.27
2023-02-12T15:51:58.661Z,18.23
2023-02-12T15:57:01.754Z,19.77
2023-02-12T16:02:05.668Z,18.30
2023-02-12T16:07:08.912Z,16.35
2023-02-12T16:12:14.033Z,22.63
2023-02-12T16:17:28.163Z,16.83
2023-02-12T16:22:33.156Z,20.13
2023-02-12T16:27:35.995Z,20.23
2023-02-12T16:32:41.134Z,23.10
2023-02-12T16:37:50.817Z,25.35
2023-02-12T16:43:07.702Z,27.60
2023-02-12T16:48:17.071Z,24.27
2023-02-12T16:53:33.853Z,20.63
2023-02-12T16:58:36.439Z,27.48
2023-02-12T17:03:43.602Z,21.83
2023-02-12T17:08:46.278Z,23.58
2023-02-12T17:13:49.558Z,18.85
2023-02-12T17:18:53.365Z,26.47
2023-02-12T17:23:56.026Z,28.25
2023-02-12T17:29:05.116Z,20.33
2023-02-12T17:34:09.093Z,23.48
2023-02-12T17:39:13.068Z,23.73
2023-02-12T17:44:16.298Z,30.88
2023-02-12T17:49:20.113Z,26.40
2023-02-12T17:54:22.682Z,21.33
2023-02-12T17:59:25.163Z,24.67
2023-02-12T18:04:28.983Z,27.60
2023-02-12T18:09:32.155Z,28.75
2023-02-12T18:14:34.803Z,28.77
2023-02-12T18:19:38.751Z,29.58
2023-02-12T18:24:41.571Z,27.10
2023-02-12T18:29:43.995Z,24.73
2023-02-12T18:34:47.792Z,26.83
2023-02-12T18:39:50.258Z,21.40
2023-02-12T18:44:52.830Z,25.20
2023-02-12T18:49:58.001Z,40.33
2023-02-12T18:55:00.464Z,30.03
2023-02-12T19:00:04.563Z,29.17
2023-02-12T19:05:10.604Z,28.63
2023-02-12T19:10:14.009Z,28.87
2023-02-12T19:15:16.815Z,22.57
2023-02-12T19:20:21.029Z,26.73
2023-02-12T19:30:25.757Z,23.20
2023-02-12T19:35:29.823Z,27.73
2023-02-12T19:40:32.539Z,22.85
2023-02-12T19:45:35.106Z,17.10
2023-02-12T19:50:38.960Z,24.40
2023-02-12T19:55:41.587Z,19.33
2023-02-12T20:00:44.177Z,22.93
2023-02-12T20:05:52.071Z,26.87
2023-02-12T20:10:54.961Z,29.23
2023-02-12T20:15:57.682Z,25.63
2023-02-12T20:21:02.126Z,20.23
2023-02-12T20:26:05.237Z,16.45
2023-02-12T20:31:11.195Z,19.02
2023-02-12T20:36:15.612Z,25.40
2023-02-12T20:46:21.812Z,19.50
2023-02-12T20:51:26.749Z,24.27
2023-02-12T20:56:30.801Z,25.17
2023-02-12T21:01:34.995Z,11.52
2023-02-12T21:06:40.373Z,13.80
2023-02-12T21:11:45.930Z,21.80
2023-02-12T21:16:49.862Z,24.40
2023-02-12T21:21:54.234Z,23.83
2023-02-12T21:26:57.358Z,18.20
2023-02-12T21:32:01.118Z,16.52
2023-02-12T21:37:05.349Z,11.02
2023-02-12T21:42:07.826Z,16.67
2023-02-12T21:47:10.821Z,16.70
2023-02-12T21:52:14.850Z,17.83
2023-02-12T21:57:19.791Z,15.07
2023-02-12T22:02:22.577Z,24.17
2023-02-12T22:07:26.656Z,21.10
2023-02-12T22:12:32.306Z,21.13
2023-02-12T22:17:34.978Z,17.80
2023-02-12T22:22:38.903Z,14.13
2023-02-12T22:27:41.614Z,24.63
2023-02-12T22:32:44.216Z,15.90
2023-02-12T22:37:48.046Z,13.83
2023-02-12T22:42:50.526Z,15.23
2023-02-12T22:47:52.923Z,8.97
2023-02-12T22:52:56.895Z,15.50
2023-02-12T22:57:59.556Z,15.15
2023-02-12T23:03:02.360Z,15.77
2023-02-12T23:08:06.751Z,15.87
2023-02-12T23:13:10.467Z,10.43
2023-02-12T23:18:13.276Z,9.43
2023-02-12T23:23:17.319Z,18.17
2023-02-12T23:33:23.046Z,18.93
2023-02-12T23:38:26.871Z,13.17
2023-02-12T23:43:29.674Z,16.23
2023-02-12T23:48:32.649Z,16.47
2023-02-12T23:53:37.091Z,10.80
2023-02-12T23:58:39.609Z,7.87
